Time;durP1;ratioP1;P1;durP2;ratioP2;P2;SDS_P1;SDS_P2;PMS_P1;PMS_P2;Temp;Humidity;BMP_temperature;BMP_pressure;BME280_temperature;BME280_humidity;BME280_pressure;Samples;Min_cycle;Max_cycle;Signal;HPM_P1;HPM_P2
2022/04/27 00:01:29;;;;;;;;;;;7.80;99.90;;;;;;5031098;28;20410;-88
2022/04/27 00:03:56;;;;;;;;;;;7.80;99.90;;;;;;5030980;28;19925;-88
2022/04/27 00:06:22;;;;;;;;;;;7.80;99.90;;;;;;5028805;28;19932;-86
2022/04/27 00:08:49;;;;;;;;;;;7.80;99.90;;;;;;5017361;28;19932;-84
2022/04/27 00:11:17;;;;;;;;;;;7.80;99.90;;;;;;5029563;28;20020;-84
2022/04/27 00:13:43;;;;;;;;;;;7.80;99.90;;;;;;5025563;28;19957;-83
2022/04/27 00:16:10;;;;;;;;;;;7.80;99.90;;;;;;5030641;28;20008;-84
2022/04/27 00:18:37;;;;;;;;;;;7.80;99.90;;;;;;5019840;28;19968;-86
2022/04/27 00:21:03;;;;;;;;;;;7.90;99.90;;;;;;5023660;28;19964;-88
2022/04/27 00:23:32;;;;;;;;;;;7.80;99.90;;;;;;5021230;28;19926;-88
2022/04/27 00:25:58;;;;;;;;;;;7.70;99.90;;;;;;5017829;28;20451;-86
2022/04/27 00:28:26;;;;;;;;;;;7.70;99.90;;;;;;5018109;28;19926;-87
2022/04/27 00:30:53;;;;;;;;;;;7.70;99.90;;;;;;5031461;28;19936;-88
2022/04/27 00:33:20;;;;;;;;;;;7.60;99.90;;;;;;5022897;28;20001;-86
2022/04/27 00:35:46;;;;;;;;;;;7.60;99.90;;;;;;5030602;28;19925;-87
2022/04/27 00:38:13;;;;;;;;;;;7.60;99.90;;;;;;5022649;28;19933;-86
2022/04/27 00:40:40;;;;;;;;;;;7.60;99.90;;;;;;5024794;28;20408;-86
2022/04/27 00:43:06;;;;;;;;;;;7.60;99.90;;;;;;5015982;28;19960;-86
2022/04/27 00:45:34;;;;;;;;;;;7.60;99.90;;;;;;5019194;28;19933;-86
2022/04/27 00:48:01;;;;;;;;;;;7.50;99.90;;;;;;5018087;28;20016;-85
2022/04/27 00:50:29;;;;;;;;;;;7.40;99.90;;;;;;5026756;28;20008;-84
2022/04/27 00:52:56;;;;;;;;;;;7.40;99.90;;;;;;5053837;28;19956;-82
2022/04/27 00:55:22;;;;;;;;;;;7.30;99.90;;;;;;5057884;28;19956;-80
2022/04/27 00:57:49;;;;;;;;;;;7.30;99.90;;;;;;5045452;28;19980;-81
2022/04/27 01:00:16;;;;;;;;;;;7.40;99.90;;;;;;5044397;28;19984;-82
2022/04/27 01:02:44;;;;;;;;;;;7.30;99.90;;;;;;5037985;28;19965;-83
2022/04/27 01:05:11;;;;;;;;;;;7.20;99.90;;;;;;5035920;28;19925;-83
2022/04/27 01:07:38;;;;;;;;;;;7.20;99.90;;;;;;5032291;28;20016;-84
2022/04/27 01:10:06;;;;;;;;;;;7.10;99.90;;;;;;5043011;28;19926;-83
2022/04/27 01:12:34;;;;;;;;;;;7.10;99.90;;;;;;5037751;28;19956;-85
2022/04/27 01:15:00;;;;;;;;;;;7.10;99.90;;;;;;5029427;28;20023;-84
2022/04/27 01:17:27;;;;;;;;;;;7.00;99.90;;;;;;5033290;28;20023;-85
2022/04/27 01:19:55;;;;;;;;;;;7.00;99.90;;;;;;5022390;28;20008;-84
2022/04/27 01:22:23;;;;;;;;;;;7.00;99.90;;;;;;5034903;28;19960;-81
2022/04/27 01:24:50;;;;;;;;;;;7.00;99.90;;;;;;5042441;28;19925;-82
2022/04/27 01:27:17;;;;;;;;;;;7.00;99.90;;;;;;5046492;28;19932;-81
2022/04/27 01:29:43;;;;;;;;;;;6.90;99.90;;;;;;5042228;28;19957;-82
2022/04/27 01:32:10;;;;;;;;;;;6.80;99.90;;;;;;5045556;28;19932;-83
2022/04/27 01:34:37;;;;;;;;;;;6.80;99.90;;;;;;5043167;28;19956;-81
2022/04/27 01:39:46;;;;;;;;;;;6.80;99.90;;;;;;5037484;28;19951;-81
2022/04/27 01:42:12;;;;;;;;;;;6.90;99.90;;;;;;5049004;28;20335;-81
2022/04/27 01:44:39;;;;;;;;;;;6.90;99.90;;;;;;5042718;28;19929;-81
2022/04/27 01:47:06;;;;;;;;;;;6.90;99.90;;;;;;5033584;28;19972;-81
2022/04/27 01:49:33;;;;;;;;;;;6.90;99.90;;;;;;5052957;28;19925;-83
2022/04/27 01:54:45;;;;;;;;;;;6.70;99.90;;;;;;5039421;28;19936;-81
2022/04/27 01:57:12;;;;;;;;;;;6.60;99.90;;;;;;5047893;28;19932;-80
2022/04/27 01:59:41;;;;;;;;;;;6.60;99.90;;;;;;5047931;28;19989;-81
2022/04/27 02:02:10;;;;;;;;;;;6.60;99.90;;;;;;5039954;28;20012;-81
2022/04/27 02:04:39;;;;;;;;;;;6.60;99.90;;;;;;5032040;28;19925;-81
2022/04/27 02:07:06;;;;;;;;;;;6.70;99.90;;;;;;5038829;28;19964;-82
2022/04/27 02:09:32;;;;;;;;;;;6.80;99.90;;;;;;5050528;28;19956;-81
2022/04/27 02:12:00;;;;;;;;;;;6.70;99.90;;;;;;5060494;28;19996;-75
2022/04/27 02:14:27;;;;;;;;;;;6.70;99.90;;;;;;5043236;28;19961;-81
2022/04/27 02:16:54;;;;;;;;;;;6.60;99.90;;;;;;5042515;28;20020;-82
2022/04/27 02:19:21;;;;;;;;;;;6.50;99.90;;;;;;5041989;28;19926;-85
2022/04/27 02:21:47;;;;;;;;;;;6.50;99.90;;;;;;5052944;28;19921;-84
2022/04/27 02:24:14;;;;;;;;;;;6.40;99.90;;;;;;5056826;28;19961;-81
2022/04/27 02:26:42;;;;;;;;;;;6.40;99.90;;;;;;5046504;28;20029;-82
2022/04/27 02:29:10;;;;;;;;;;;6.40;99.90;;;;;;5038026;28;19964;-81
2022/04/27 02:31:37;;;;;;;;;;;6.30;99.90;;;;;;5038534;28;19932;-80
2022/04/27 02:34:04;;;;;;;;;;;6.20;99.90;;;;;;5042571;28;20005;-79
2022/04/27 02:36:31;;;;;;;;;;;6.10;99.90;;;;;;5045643;28;19988;-81
2022/04/27 02:38:58;;;;;;;;;;;6.00;99.90;;;;;;5053851;28;19913;-82
2022/04/27 02:41:24;;;;;;;;;;;6.00;99.90;;;;;;5051554;28;19990;-82
2022/04/27 02:43:51;;;;;;;;;;;6.00;99.90;;;;;;5052466;28;20380;-82
2022/04/27 02:46:19;;;;;;;;;;;6.00;99.90;;;;;;5054611;28;19926;-83
2022/04/27 02:54:13;;;;;;;;;;;5.90;99.90;;;;;;5037811;28;19917;-83
2022/04/27 02:56:40;;;;;;;;;;;5.80;99.90;;;;;;5046193;28;19936;-81
2022/04/27 02:59:06;;;;;;;;;;;5.80;99.90;;;;;;5053597;28;19909;-81
2022/04/27 03:01:34;;;;;;;;;;;5.80;99.90;;;;;;5054778;28;19921;-80
2022/04/27 03:04:03;;;;;;;;;;;5.80;99.90;;;;;;5061460;28;19945;-80
2022/04/27 03:06:30;;;;;;;;;;;5.60;99.90;;;;;;5042803;28;19936;-80
2022/04/27 03:08:56;;;;;;;;;;;5.40;99.90;;;;;;5034717;28;19967;-80
2022/04/27 03:11:25;;;;;;;;;;;5.40;99.90;;;;;;5056479;28;19933;-80
2022/04/27 03:13:52;;;;;;;;;;;5.30;99.90;;;;;;5060213;28;19937;-66
2022/04/27 03:16:19;;;;;;;;;;;5.30;99.90;;;;;;5061464;28;19913;-63
2022/04/27 03:18:50;;;;;;;;;;;5.30;99.90;;;;;;5061308;28;19910;-62
2022/04/27 03:21:16;;;;;;;;;;;5.30;99.90;;;;;;5061370;28;19910;-67
2022/04/27 03:23:44;;;;;;;;;;;5.20;99.90;;;;;;5061608;28;19941;-64
2022/04/27 03:26:11;;;;;;;;;;;5.00;99.90;;;;;;5061309;28;20467;-66
2022/04/27 03:28:38;;;;;;;;;;;4.90;99.90;;;;;;5061046;28;19989;-73
2022/04/27 03:31:04;;;;;;;;;;;4.90;99.90;;;;;;5061337;28;19910;-64
2022/04/27 03:33:33;;;;;;;;;;;4.90;99.90;;;;;;5052686;28;19969;-73
2022/04/27 03:36:01;;;;;;;;;;;4.80;99.90;;;;;;5041217;28;19945;-76
2022/04/27 03:38:28;;;;;;;;;;;4.80;99.90;;;;;;5041230;28;19937;-65
2022/04/27 03:40:54;;;;;;;;;;;4.80;99.90;;;;;;5054494;28;19944;-63
2022/04/27 03:43:21;;;;;;;;;;;4.80;99.90;;;;;;5060644;28;19943;-70
2022/04/27 04:12:10;;;;;;;;;;;4.50;99.90;;;;;;5406528;22;19915;-70
2022/04/27 04:14:37;;;;;;;;;;;4.60;99.90;;;;;;5080075;28;19909;-64
2022/04/27 04:17:04;;;;;;;;;;;4.70;99.90;;;;;;5080156;28;19908;-65
2022/04/27 04:19:32;;;;;;;;;;;4.70;99.90;;;;;;5080413;28;19916;-64
2022/04/27 04:21:59;;;;;;;;;;;5.30;99.90;;;;;;5080243;28;19937;-63
2022/04/27 04:24:29;;;;;;;;;;;4.80;99.90;;;;;;5080258;28;19908;-72
2022/04/27 04:29:41;;;;;;;;;;;4.80;99.90;;;;;;5100036;28;19951;-69
2022/04/27 04:32:08;;;;;;;;;;;4.80;99.90;;;;;;5100112;28;19915;-63
2022/04/27 04:34:35;;;;;;;;;;;4.80;99.90;;;;;;5099845;28;19939;-75
2022/04/27 04:37:02;;;;;;;;;;;4.80;99.90;;;;;;5100018;28;19968;-74
2022/04/27 04:39:29;;;;;;;;;;;4.70;99.90;;;;;;5099975;28;19924;-69
2022/04/27 04:41:55;;;;;;;;;;;4.70;99.90;;;;;;5099638;28;19936;-64
2022/04/27 04:44:22;;;;;;;;;;;4.80;99.90;;;;;;5099730;28;19955;-66
2022/04/27 04:59:47;;;;;;;;;;;4.90;99.90;;;;;;5044681;22;19918;-64
2022/04/27 05:02:13;;;;;;;;;;;5.20;99.90;;;;;;4958970;28;19953;-74
2022/04/27 05:04:40;;;;;;;;;;;5.10;99.90;;;;;;4959023;28;19923;-64
2022/04/27 05:07:07;;;;;;;;;;;5.20;99.90;;;;;;4958863;28;19942;-69
2022/04/27 05:09:34;;;;;;;;;;;5.20;99.90;;;;;;4958892;28;19911;-67
2022/04/27 05:12:00;;;;;;;;;;;5.30;99.90;;;;;;4957680;28;19929;-76
2022/04/27 05:14:27;;;;;;;;;;;5.40;99.90;;;;;;4959093;28;19949;-64
2022/04/27 05:16:55;;;;;;;;;;;5.50;99.90;;;;;;4958860;28;19953;-64
2022/04/27 05:19:22;;;;;;;;;;;5.60;99.90;;;;;;5042727;28;19913;-73
2022/04/27 05:21:49;;;;;;;;;;;5.60;99.90;;;;;;5059256;28;19932;-78
2022/04/27 05:24:16;;;;;;;;;;;5.60;99.90;;;;;;5058726;28;19948;-71
2022/04/27 05:26:42;;;;;;;;;;;5.70;99.90;;;;;;4994782;28;19948;-68
2022/04/27 05:31:55;;;;;;;;;;;5.90;99.90;;;;;;5008054;28;19971;-70
2022/04/27 05:34:21;;;;;;;;;;;5.90;99.90;;;;;;4958469;28;19950;-76
2022/04/27 05:36:48;;;;;;;;;;;6.00;99.90;;;;;;4975471;28;19915;-66
2022/04/27 05:39:15;;;;;;;;;;;6.00;99.90;;;;;;4977761;28;19979;-64
2022/04/27 05:41:42;;;;;;;;;;;6.10;99.90;;;;;;4977208;28;19927;-76
2022/04/27 05:44:09;;;;;;;;;;;6.10;99.90;;;;;;4968578;28;20032;-68
2022/04/27 05:51:57;;;;;;;;;;;6.40;99.90;;;;;;4981618;23;19917;-68
2022/04/27 05:54:24;;;;;;;;;;;6.60;99.90;;;;;;5043419;28;19936;-76
2022/04/27 05:56:50;;;;;;;;;;;6.60;99.90;;;;;;5022602;28;19970;-81
2022/04/27 05:59:17;;;;;;;;;;;6.70;99.90;;;;;;4977556;28;19942;-63
2022/04/27 06:01:45;;;;;;;;;;;6.80;99.90;;;;;;4977567;28;19910;-66
2022/04/27 06:04:12;;;;;;;;;;;6.90;99.90;;;;;;4977196;28;19980;-73
2022/04/27 06:06:39;;;;;;;;;;;7.00;99.90;;;;;;4990170;28;19928;-76
2022/04/27 06:09:09;;;;;;;;;;;7.10;99.90;;;;;;5064873;28;19925;-75
2022/04/27 06:11:36;;;;;;;;;;;7.20;99.90;;;;;;4965968;28;19941;-70
2022/04/27 06:14:02;;;;;;;;;;;7.30;99.90;;;;;;4957669;28;19923;-63
2022/04/27 06:16:32;;;;;;;;;;;7.30;99.90;;;;;;4976026;28;19949;-70
2022/04/27 06:18:59;;;;;;;;;;;7.40;99.90;;;;;;4981503;28;19915;-80
2022/04/27 06:21:30;;;;;;;;;;;7.50;99.90;;;;;;4968284;28;19938;-78
2022/04/27 06:23:57;;;;;;;;;;;7.70;99.90;;;;;;4963150;28;19937;-78
2022/04/27 06:26:25;;;;;;;;;;;7.70;99.90;;;;;;4962860;28;20002;-78
2022/04/27 06:28:53;;;;;;;;;;;7.70;99.90;;;;;;4971601;28;19985;-78
2022/04/27 06:31:19;;;;;;;;;;;7.70;99.90;;;;;;5021348;28;19934;-79
2022/04/27 06:33:46;;;;;;;;;;;7.80;99.90;;;;;;4958466;28;20324;-80
2022/04/27 06:36:13;;;;;;;;;;;7.90;99.90;;;;;;4958171;28;19990;-79
2022/04/27 06:38:39;;;;;;;;;;;7.90;99.90;;;;;;4953552;28;19926;-78
2022/04/27 06:41:06;;;;;;;;;;;7.90;99.90;;;;;;4954676;28;19926;-78
2022/04/27 06:43:35;;;;;;;;;;;8.00;99.90;;;;;;4946364;28;20020;-78
2022/04/27 06:46:01;;;;;;;;;;;8.20;99.90;;;;;;4943040;28;19957;-79
2022/04/27 06:48:28;;;;;;;;;;;8.40;99.90;;;;;;4949288;28;20045;-77
2022/04/27 06:50:55;;;;;;;;;;;8.30;99.90;;;;;;4943902;28;19941;-76
2022/04/27 06:53:21;;;;;;;;;;;8.40;99.90;;;;;;4947788;29;19934;-78
2022/04/27 06:55:50;;;;;;;;;;;8.40;99.90;;;;;;4944171;28;19952;-76
2022/04/27 06:58:17;;;;;;;;;;;8.40;99.90;;;;;;4950028;28;19926;-77
2022/04/27 07:00:45;;;;;;;;;;;8.60;99.90;;;;;;4945175;28;20424;-78
2022/04/27 07:03:11;;;;;;;;;;;9.30;99.90;;;;;;4942000;28;19941;-79
2022/04/27 07:05:38;;;;;;;;;;;10.60;95.40;;;;;;4941675;28;20035;-81
2022/04/27 07:08:06;;;;;;;;;;;11.50;91.10;;;;;;4941024;28;20393;-79
2022/04/27 07:10:36;;;;;;;;;;;11.60;87.40;;;;;;4941649;28;19937;-80
2022/04/27 07:13:03;;;;;;;;;;;11.80;83.60;;;;;;4937572;28;19931;-80
2022/04/27 07:15:30;;;;;;;;;;;12.60;78.50;;;;;;4936972;28;19927;-78
2022/04/27 07:17:58;;;;;;;;;;;13.10;69.70;;;;;;4940433;28;19972;-79
2022/04/27 07:20:24;;;;;;;;;;;12.90;67.80;;;;;;4945332;28;19937;-79
2022/04/27 07:22:51;;;;;;;;;;;13.30;66.80;;;;;;4939292;28;19930;-76
2022/04/27 07:25:19;;;;;;;;;;;13.30;61.70;;;;;;4939539;28;20021;-79
2022/04/27 07:27:46;;;;;;;;;;;12.50;62.80;;;;;;4941315;28;19935;-79
2022/04/27 07:30:12;;;;;;;;;;;13.20;64.10;;;;;;4943286;28;20361;-77
2022/04/27 07:32:39;;;;;;;;;;;13.40;59.30;;;;;;4946208;28;19927;-78
2022/04/27 07:35:08;;;;;;;;;;;13.60;60.80;;;;;;4936759;28;19969;-80
2022/04/27 07:37:36;;;;;;;;;;;13.20;58.00;;;;;;4940692;29;19941;-78
2022/04/27 07:40:03;;;;;;;;;;;14.00;56.50;;;;;;4942146;28;20140;-85
2022/04/27 07:42:30;;;;;;;;;;;13.80;54.80;;;;;;4945108;28;20507;-80
2022/04/27 07:44:57;;;;;;;;;;;13.30;54.60;;;;;;4946482;28;19930;-78
2022/04/27 07:47:23;;;;;;;;;;;13.50;55.10;;;;;;4942998;28;20030;-77
2022/04/27 07:49:50;;;;;;;;;;;13.10;51.20;;;;;;4937305;28;20018;-77
2022/04/27 07:52:18;;;;;;;;;;;13.90;51.30;;;;;;4944301;28;19927;-78
2022/04/27 07:54:45;;;;;;;;;;;13.20;51.00;;;;;;4945471;28;19930;-78
2022/04/27 07:57:11;;;;;;;;;;;13.10;53.20;;;;;;4941307;28;19927;-80
2022/04/27 07:59:38;;;;;;;;;;;13.60;51.90;;;;;;4943821;28;19942;-80
2022/04/27 08:02:05;;;;;;;;;;;13.80;48.90;;;;;;4942105;29;19934;-78
2022/04/27 08:04:31;;;;;;;;;;;14.30;47.20;;;;;;4943337;28;20056;-79
2022/04/27 08:06:58;;;;;;;;;;;14.90;43.30;;;;;;4944427;29;20304;-81
2022/04/27 08:09:26;;;;;;;;;;;16.00;42.80;;;;;;4941189;28;20345;-76
2022/04/27 08:11:54;;;;;;;;;;;15.40;41.40;;;;;;4938698;28;19931;-76
2022/04/27 08:14:21;;;;;;;;;;;14.70;40.90;;;;;;4940611;28;19927;-78
2022/04/27 08:16:47;;;;;;;;;;;14.40;41.20;;;;;;4934241;28;20152;-77
2022/04/27 08:19:14;;;;;;;;;;;13.80;40.30;;;;;;4943407;28;19941;-77
2022/04/27 08:21:43;;;;;;;;;;;14.20;41.90;;;;;;4941544;28;19993;-77
2022/04/27 08:24:11;;;;;;;;;;;14.80;41.40;;;;;;4944606;28;19937;-78
2022/04/27 08:26:39;;;;;;;;;;;14.80;40.30;;;;;;4938027;28;19988;-78
2022/04/27 08:29:06;;;;;;;;;;;14.00;43.00;;;;;;4945597;28;19935;-79
2022/04/27 08:31:32;;;;;;;;;;;14.50;41.10;;;;;;4942600;28;20393;-78
2022/04/27 08:33:59;;;;;;;;;;;14.40;39.00;;;;;;4937844;28;19942;-77
2022/04/27 08:36:26;;;;;;;;;;;14.40;38.30;;;;;;4941847;28;20041;-77
2022/04/27 08:38:52;;;;;;;;;;;14.40;40.10;;;;;;4940835;28;19931;-77
2022/04/27 08:41:19;;;;;;;;;;;14.20;38.20;;;;;;4942001;28;19934;-77
2022/04/27 08:43:47;;;;;;;;;;;15.10;35.60;;;;;;4940135;28;19927;-80
2022/04/27 08:46:15;;;;;;;;;;;14.00;38.30;;;;;;4937121;28;19926;-77
2022/04/27 08:48:45;;;;;;;;;;;14.90;35.80;;;;;;4938963;28;19964;-78
2022/04/27 08:51:13;;;;;;;;;;;14.90;36.30;;;;;;4940155;28;19934;-84
2022/04/27 08:53:39;;;;;;;;;;;15.50;37.20;;;;;;4938777;28;19939;-81
2022/04/27 08:56:06;;;;;;;;;;;15.90;31.10;;;;;;4937503;28;20053;-82
2022/04/27 08:58:33;;;;;;;;;;;15.20;32.50;;;;;;4941464;28;19927;-81
2022/04/27 09:01:01;;;;;;;;;;;14.10;35.50;;;;;;4940308;28;19949;-77
2022/04/27 09:03:28;;;;;;;;;;;14.40;35.20;;;;;;4947215;28;19926;-76
2022/04/27 09:05:56;;;;;;;;;;;14.70;31.80;;;;;;4936876;28;19934;-76
2022/04/27 09:08:24;;;;;;;;;;;14.30;32.80;;;;;;4939276;28;19933;-76
2022/04/27 09:10:51;;;;;;;;;;;15.80;30.60;;;;;;4936636;28;19934;-77
2022/04/27 09:13:18;;;;;;;;;;;14.70;31.60;;;;;;4939775;28;19931;-75
2022/04/27 09:15:44;;;;;;;;;;;14.40;33.20;;;;;;4935424;28;20079;-76
2022/04/27 09:21:00;;;;;;;;;;;15.60;31.20;;;;;;4941497;28;19938;-75
2022/04/27 09:23:28;;;;;;;;;;;16.50;29.90;;;;;;4938988;28;19934;-78
2022/04/27 09:25:56;;;;;;;;;;;16.80;26.50;;;;;;4942796;28;19938;-78
2022/04/27 09:28:23;;;;;;;;;;;15.90;28.20;;;;;;4943381;28;19988;-77
2022/04/27 09:30:51;;;;;;;;;;;16.70;27.70;;;;;;4939521;28;19981;-78
2022/04/27 09:33:32;;;;;;;;;;;17.90;24.40;;;;;;4944021;28;19930;-79
2022/04/27 09:35:59;;;;;;;;;;;17.10;24.60;;;;;;4931464;28;19927;-78
2022/04/27 09:38:26;;;;;;;;;;;15.90;28.00;;;;;;4935007;28;19927;-78
2022/04/27 09:40:54;;;;;;;;;;;15.90;26.30;;;;;;4940980;28;20310;-77
2022/04/27 09:43:41;;;;;;;;;;;16.50;25.80;;;;;;4944351;28;20017;-77
2022/04/27 09:46:15;;;;;;;;;;;15.60;27.20;;;;;;4936507;28;20398;-77
2022/04/27 09:48:46;;;;;;;;;;;15.40;27.00;;;;;;4935701;28;20479;-73
2022/04/27 09:51:13;;;;;;;;;;;15.70;26.70;;;;;;4935728;28;20604;-73
2022/04/27 09:53:42;;;;;;;;;;;15.80;27.60;;;;;;4939809;28;19927;-75
2022/04/27 09:56:11;;;;;;;;;;;17.20;24.00;;;;;;4939749;28;19934;-75
2022/04/27 09:58:42;;;;;;;;;;;16.60;26.30;;;;;;4945855;29;19926;-79
2022/04/27 10:01:09;;;;;;;;;;;15.00;27.90;;;;;;4942193;28;19966;-82
2022/04/27 10:03:37;;;;;;;;;;;14.40;27.90;;;;;;4947446;29;20135;-83
2022/04/27 10:06:05;;;;;;;;;;;14.20;29.50;;;;;;4950886;28;19930;-78
2022/04/27 10:08:32;;;;;;;;;;;13.70;29.10;;;;;;4945778;29;19981;-80
2022/04/27 10:10:59;;;;;;;;;;;13.90;30.40;;;;;;4941128;28;19930;-81
2022/04/27 10:13:26;;;;;;;;;;;13.70;29.40;;;;;;4945008;29;20013;-82
2022/04/27 10:15:53;;;;;;;;;;;13.80;29.20;;;;;;4943016;28;19930;-78
2022/04/27 10:18:20;;;;;;;;;;;13.30;30.40;;;;;;4940254;28;19926;-78
2022/04/27 10:20:50;;;;;;;;;;;13.30;30.00;;;;;;4943717;28;19927;-79
2022/04/27 10:23:19;;;;;;;;;;;13.80;29.10;;;;;;4937659;28;19934;-79
2022/04/27 10:26:04;;;;;;;;;;;14.10;29.00;;;;;;4943166;28;20392;-78
2022/04/27 10:28:34;;;;;;;;;;;13.80;30.60;;;;;;4941954;28;20013;-79
2022/04/27 10:31:07;;;;;;;;;;;13.40;28.80;;;;;;4949029;28;20400;-78
2022/04/27 10:33:43;;;;;;;;;;;13.60;30.80;;;;;;4945911;28;20033;-76
2022/04/27 10:36:37;;;;;;;;;;;13.50;32.20;;;;;;4939962;28;20306;-79
2022/04/27 10:39:19;;;;;;;;;;;13.80;29.30;;;;;;4945942;28;20453;-78
2022/04/27 10:42:16;;;;;;;;;;;14.20;28.30;;;;;;4942672;28;19926;-79
2022/04/27 10:45:02;;;;;;;;;;;13.90;28.90;;;;;;4948327;28;20296;-79
2022/04/27 10:47:35;;;;;;;;;;;13.80;30.80;;;;;;4938742;28;19931;-79
2022/04/27 10:50:23;;;;;;;;;;;13.80;29.50;;;;;;4933990;28;19942;-77
2022/04/27 10:52:52;;;;;;;;;;;13.80;31.40;;;;;;4929286;28;19927;-78
2022/04/27 10:55:38;;;;;;;;;;;13.70;30.10;;;;;;4935584;28;19926;-79
2022/04/27 10:58:12;;;;;;;;;;;14.20;29.40;;;;;;4936940;28;20381;-76
2022/04/27 11:00:54;;;;;;;;;;;14.80;27.70;;;;;;4942894;28;19931;-82
2022/04/27 11:03:21;;;;;;;;;;;14.60;28.90;;;;;;4941947;28;20005;-79
2022/04/27 11:05:48;;;;;;;;;;;13.90;28.40;;;;;;4938163;28;19926;-78
2022/04/27 11:08:18;;;;;;;;;;;14.20;29.40;;;;;;4939323;28;19930;-77
2022/04/27 11:10:44;;;;;;;;;;;14.00;28.40;;;;;;4937819;28;19953;-78
2022/04/27 11:13:13;;;;;;;;;;;14.70;28.00;;;;;;4945111;28;19927;-79
2022/04/27 11:15:40;;;;;;;;;;;14.60;29.50;;;;;;4937128;28;20447;-75
2022/04/27 11:18:07;;;;;;;;;;;14.40;28.00;;;;;;4941056;28;19934;-77
2022/04/27 11:20:35;;;;;;;;;;;14.10;28.60;;;;;;4938420;28;20017;-79
2022/04/27 11:23:03;;;;;;;;;;;14.10;27.40;;;;;;4939119;28;19928;-79
2022/04/27 11:25:30;;;;;;;;;;;14.10;28.50;;;;;;4941185;28;19978;-80
2022/04/27 11:27:57;;;;;;;;;;;14.80;27.70;;;;;;4939211;28;19933;-78
2022/04/27 11:30:26;;;;;;;;;;;15.00;27.00;;;;;;4943635;28;19964;-80
2022/04/27 11:32:53;;;;;;;;;;;14.50;27.40;;;;;;4942906;28;20457;-79
2022/04/27 11:35:23;;;;;;;;;;;14.80;28.10;;;;;;4939651;28;19988;-78
2022/04/27 11:37:52;;;;;;;;;;;14.70;26.60;;;;;;4942395;28;20283;-78
2022/04/27 11:40:20;;;;;;;;;;;15.00;26.60;;;;;;4941280;28;19933;-79
2022/04/27 11:42:48;;;;;;;;;;;15.40;25.90;;;;;;4944505;28;20048;-77
2022/04/27 11:45:20;;;;;;;;;;;15.40;27.70;;;;;;4948381;28;20465;-80
2022/04/27 11:47:57;;;;;;;;;;;15.70;26.50;;;;;;4947380;28;19934;-80
2022/04/27 11:50:23;;;;;;;;;;;15.40;25.90;;;;;;4945639;28;19941;-77
2022/04/27 11:52:56;;;;;;;;;;;15.00;28.80;;;;;;4946260;28;20446;-80
2022/04/27 11:55:22;;;;;;;;;;;14.70;27.10;;;;;;4944713;28;19956;-83
2022/04/27 11:57:50;;;;;;;;;;;14.70;26.80;;;;;;4944040;28;20269;-82
2022/04/27 12:00:19;;;;;;;;;;;14.70;28.30;;;;;;4948239;28;19958;-83
2022/04/27 12:02:47;;;;;;;;;;;14.50;27.30;;;;;;4940650;28;19972;-81
2022/04/27 12:05:21;;;;;;;;;;;14.80;27.80;;;;;;4944010;28;19962;-81
2022/04/27 12:07:50;;;;;;;;;;;14.60;27.50;;;;;;4947791;28;20305;-83
2022/04/27 12:10:17;;;;;;;;;;;15.10;26.90;;;;;;4939216;28;19926;-82
2022/04/27 12:12:44;;;;;;;;;;;15.70;26.60;;;;;;4937249;28;20396;-83
2022/04/27 12:15:12;;;;;;;;;;;15.50;25.60;;;;;;4946553;28;19926;-82
2022/04/27 12:17:43;;;;;;;;;;;15.30;26.70;;;;;;4944119;28;19949;-78
2022/04/27 12:20:23;;;;;;;;;;;15.10;26.30;;;;;;4944521;28;20006;-81
2022/04/27 12:22:55;;;;;;;;;;;15.20;26.60;;;;;;4944767;28;21964;-79
2022/04/27 12:25:22;;;;;;;;;;;15.70;26.70;;;;;;4944479;28;19930;-81
2022/04/27 12:27:50;;;;;;;;;;;15.80;25.20;;;;;;4940862;28;19927;-82
2022/04/27 12:30:19;;;;;;;;;;;15.90;24.50;;;;;;4940324;28;19935;-79
2022/04/27 12:32:46;;;;;;;;;;;15.70;25.10;;;;;;4945324;28;20021;-80
2022/04/27 12:38:08;;;;;;;;;;;15.60;25.40;;;;;;4942235;28;19934;-83
2022/04/27 12:40:34;;;;;;;;;;;15.60;24.90;;;;;;4939262;28;19941;-83
2022/04/27 12:43:01;;;;;;;;;;;15.50;27.00;;;;;;4939500;28;19933;-84
2022/04/27 12:45:29;;;;;;;;;;;15.10;26.80;;;;;;4940074;28;19927;-82
2022/04/27 12:47:56;;;;;;;;;;;15.10;27.60;;;;;;4944254;28;19934;-82
2022/04/27 12:50:23;;;;;;;;;;;15.40;26.50;;;;;;4943782;28;19939;-77
2022/04/27 12:52:49;;;;;;;;;;;15.50;25.90;;;;;;4950837;28;19935;-85
2022/04/27 12:55:20;;;;;;;;;;;15.10;25.80;;;;;;4940608;28;20015;-76
2022/04/27 12:57:47;;;;;;;;;;;15.30;27.80;;;;;;4945432;28;20007;-74
2022/04/27 13:00:14;;;;;;;;;;;15.50;28.40;;;;;;4940624;28;19931;-74
2022/04/27 13:02:41;;;;;;;;;;;15.90;27.00;;;;;;4944669;28;20005;-76
2022/04/27 13:05:09;;;;;;;;;;;15.60;25.50;;;;;;4940974;28;20320;-75
2022/04/27 13:07:36;;;;;;;;;;;15.80;28.60;;;;;;4941190;28;20380;-76
2022/04/27 13:12:49;;;;;;;;;;;15.70;25.40;;;;;;4932007;28;20012;-73
2022/04/27 13:15:16;;;;;;;;;;;15.70;24.60;;;;;;4936408;28;20026;-74
2022/04/27 13:17:43;;;;;;;;;;;16.20;24.80;;;;;;4933331;28;19998;-77
2022/04/27 13:20:10;;;;;;;;;;;16.70;23.50;;;;;;4936110;28;20333;-74
2022/04/27 13:22:37;;;;;;;;;;;17.00;22.70;;;;;;4935777;28;19935;-74
2022/04/27 13:25:04;;;;;;;;;;;16.30;24.50;;;;;;4936855;28;19935;-77
2022/04/27 13:27:31;;;;;;;;;;;16.20;24.30;;;;;;4940581;28;19941;-74
2022/04/27 13:29:59;;;;;;;;;;;16.90;23.30;;;;;;4937446;28;19988;-77
2022/04/27 13:32:26;;;;;;;;;;;16.60;25.20;;;;;;4940247;28;20386;-78
2022/04/27 13:34:53;;;;;;;;;;;16.30;26.20;;;;;;4934048;28;20028;-78
2022/04/27 13:37:19;;;;;;;;;;;16.00;24.20;;;;;;4943657;28;19935;-78
2022/04/27 13:39:47;;;;;;;;;;;16.00;25.30;;;;;;4940093;28;20563;-77
2022/04/27 13:42:14;;;;;;;;;;;16.20;25.40;;;;;;4936554;28;20357;-77
2022/04/27 13:44:47;;;;;;;;;;;15.90;24.20;;;;;;4937236;28;19927;-76
2022/04/27 13:47:16;;;;;;;;;;;15.60;24.60;;;;;;4942692;28;19926;-75
2022/04/27 13:49:42;;;;;;;;;;;15.40;24.60;;;;;;4936336;28;22049;-76
2022/04/27 13:52:09;;;;;;;;;;;15.60;24.40;;;;;;4947485;28;20352;-78
2022/04/27 13:54:36;;;;;;;;;;;16.30;25.00;;;;;;4940038;28;19934;-75
2022/04/27 13:57:03;;;;;;;;;;;16.20;24.00;;;;;;4943032;28;20009;-78
2022/04/27 13:59:30;;;;;;;;;;;16.20;23.80;;;;;;4944973;28;19934;-79
2022/04/27 14:01:58;;;;;;;;;;;16.20;24.70;;;;;;4941335;28;20042;-82
2022/04/27 14:04:26;;;;;;;;;;;16.80;24.20;;;;;;4939383;28;20453;-75
2022/04/27 14:06:53;;;;;;;;;;;16.50;23.80;;;;;;4941621;28;19926;-79
2022/04/27 14:09:20;;;;;;;;;;;16.40;23.50;;;;;;4937446;28;20229;-78
2022/04/27 14:14:31;;;;;;;;;;;16.00;25.10;;;;;;4936209;28;19934;-74
2022/04/27 14:19:43;;;;;;;;;;;15.70;25.90;;;;;;4939214;28;19942;-74
2022/04/27 14:22:11;;;;;;;;;;;16.10;24.10;;;;;;4944123;28;19930;-74
2022/04/27 14:24:38;;;;;;;;;;;16.10;24.60;;;;;;4938972;28;19972;-73
2022/04/27 14:27:05;;;;;;;;;;;16.10;24.60;;;;;;4942963;28;19927;-76
2022/04/27 14:29:32;;;;;;;;;;;15.90;25.40;;;;;;4943813;28;19958;-76
2022/04/27 14:32:01;;;;;;;;;;;15.70;24.50;;;;;;4939155;28;20696;-85
2022/04/27 14:34:29;;;;;;;;;;;16.10;26.40;;;;;;4938502;28;19931;-78
2022/04/27 14:37:01;;;;;;;;;;;16.00;25.50;;;;;;4945469;28;19926;-83
2022/04/27 14:39:28;;;;;;;;;;;16.20;24.40;;;;;;4941004;28;20021;-86
2022/04/27 14:41:55;;;;;;;;;;;15.80;25.50;;;;;;4938179;28;20263;-79
2022/04/27 14:44:21;;;;;;;;;;;15.90;24.80;;;;;;4940213;28;20282;-74
2022/04/27 14:46:48;;;;;;;;;;;16.00;24.10;;;;;;4937096;28;20042;-78
2022/04/27 14:49:15;;;;;;;;;;;15.90;24.60;;;;;;4944863;28;21709;-81
2022/04/27 14:51:44;;;;;;;;;;;16.00;24.30;;;;;;4942152;28;19926;-81
2022/04/27 14:54:13;;;;;;;;;;;16.10;25.00;;;;;;4940055;29;19974;-83
2022/04/27 14:56:40;;;;;;;;;;;16.50;24.30;;;;;;4939435;28;19954;-82
2022/04/27 14:59:07;;;;;;;;;;;16.40;26.40;;;;;;4939917;28;19926;-85
2022/04/27 15:01:34;;;;;;;;;;;16.30;24.30;;;;;;4935281;28;20017;-81
2022/04/27 15:04:01;;;;;;;;;;;16.00;25.70;;;;;;4942761;28;20065;-83
2022/04/27 15:06:28;;;;;;;;;;;16.10;26.60;;;;;;4935403;28;20519;-85
2022/04/27 15:08:56;;;;;;;;;;;16.00;26.60;;;;;;4942409;28;19941;-82
2022/04/27 15:11:25;;;;;;;;;;;15.80;25.90;;;;;;4934496;28;19933;-80
2022/04/27 15:13:53;;;;;;;;;;;15.80;25.90;;;;;;4936987;28;19976;-81
2022/04/27 15:16:19;;;;;;;;;;;15.90;26.00;;;;;;4937607;28;19934;-81
2022/04/27 15:18:46;;;;;;;;;;;15.90;25.80;;;;;;4943707;28;19953;-84
2022/04/27 15:23:57;;;;;;;;;;;16.80;25.10;;;;;;4939542;28;20397;-80
2022/04/27 15:26:58;;;;;;;;;;;16.60;24.80;;;;;;4948224;28;19926;-81
2022/04/27 15:29:14;;;;;;;;;;;15.80;24.60;;;;;;4947773;28;19933;-80
2022/04/27 15:31:41;;;;;;;;;;;15.90;25.60;;;;;;4939243;28;20401;-81
2022/04/27 15:34:08;;;;;;;;;;;16.10;25.30;;;;;;4939701;28;19979;-82
2022/04/27 15:36:34;;;;;;;;;;;15.80;25.30;;;;;;4946750;28;20073;-81
2022/04/27 15:39:01;;;;;;;;;;;16.00;26.10;;;;;;4944278;28;19974;-82
2022/04/27 15:41:29;;;;;;;;;;;15.70;26.00;;;;;;4940774;28;19934;-84
2022/04/27 15:43:56;;;;;;;;;;;15.80;25.50;;;;;;4935665;28;20025;-82
2022/04/27 15:46:23;;;;;;;;;;;16.10;25.50;;;;;;4939951;28;19933;-82